Dereham, United Kingdom
Current Conditions -  °F | °C
As of 2:20 PM on Saturday 22 Nov 2014 (Local Time) from EGSH Reporting Station
Light Rain Light Rain  
Wind Chill: 55°   Ceiling: 2500
Heat Index: 55°   Visibility: 2.5mi
Dew Point: 55°   Wind: 3mph
Humidity: 100%   Direction: NA
Pressure: 29.91"   Gusts: NA
Location:  52.64°N, 0.97°E
Report Text: EGSH 221420Z VRB03KT 4000 -RA BR SCT004 BKN025 13/13 Q1013 BECMG 6000 NSW
Loading
Personal Weather Stations






























Interactive Weather Map New forecast layout! Learn more

10-Day Weather Forecast

Advertisements
Track Severe Weather on mobile